Time;durP1;ratioP1;P1;durP2;ratioP2;P2;SDS_P1;SDS_P2;PMS_P1;PMS_P2;Temp;Humidity;BMP_temperature;BMP_pressure;BME280_temperature;BME280_humidity;BME280_pressure;Samples;Min_cycle;Max_cycle;Signal;HPM_P1;HPM_P2
2023/12/27 00:01:11;;;;;;;3.23;2.93;;;8.50;55.20;;;;;;5029996;28;20202;-68
2023/12/27 00:03:38;;;;;;;4.20;2.80;;;8.50;55.00;;;;;;5027176;28;20691;-69
2023/12/27 00:06:04;;;;;;;6.20;3.17;;;8.60;55.10;;;;;;5032691;28;20699;-69
2023/12/27 00:08:31;;;;;;;3.70;2.87;;;8.60;54.90;;;;;;5033339;28;20257;-69
2023/12/27 00:10:58;;;;;;;3.90;2.60;;;8.60;55.00;;;;;;5032362;28;20248;-69
2023/12/27 00:13:24;;;;;;;5.30;3.00;;;8.60;55.00;;;;;;5036707;28;20206;-69
2023/12/27 00:15:51;;;;;;;4.50;2.80;;;8.60;55.40;;;;;;5021345;28;20229;-69
2023/12/27 00:18:17;;;;;;;6.40;3.10;;;8.60;55.10;;;;;;5032676;28;20234;-69
2023/12/27 00:20:46;;;;;;;5.07;3.20;;;8.50;55.00;;;;;;5028188;28;20237;-69
2023/12/27 00:23:13;;;;;;;3.97;3.17;;;8.60;55.10;;;;;;5031253;28;20209;-69
2023/12/27 00:25:39;;;;;;;3.13;2.80;;;8.60;55.00;;;;;;5032854;28;20268;-69
2023/12/27 00:28:06;;;;;;;5.07;3.07;;;8.50;55.30;;;;;;5033014;28;20650;-69
2023/12/27 00:30:33;;;;;;;5.93;2.70;;;8.50;55.20;;;;;;5027757;28;20207;-69
2023/12/27 00:32:59;;;;;;;6.27;3.20;;;8.60;55.50;;;;;;5025141;28;20210;-69
2023/12/27 00:35:26;;;;;;;3.77;2.73;;;8.50;55.20;;;;;;5033787;28;20564;-69
2023/12/27 00:37:52;;;;;;;4.33;2.83;;;8.50;55.40;;;;;;5027626;28;20235;-69
2023/12/27 00:40:19;;;;;;;4.57;2.93;;;8.50;55.40;;;;;;5028532;28;20256;-69
2023/12/27 00:42:46;;;;;;;6.53;3.37;;;8.50;55.00;;;;;;5029926;28;20219;-69
2023/12/27 00:45:12;;;;;;;3.20;2.90;;;8.50;55.00;;;;;;5031492;28;20228;-69
2023/12/27 00:47:39;;;;;;;5.73;2.90;;;8.50;55.10;;;;;;5027513;28;20253;-69
2023/12/27 00:50:06;;;;;;;4.43;2.97;;;8.50;55.20;;;;;;5028932;28;20681;-69
2023/12/27 00:52:32;;;;;;;4.27;2.87;;;8.60;55.10;;;;;;5029148;28;20206;-69
2023/12/27 00:54:59;;;;;;;4.13;2.93;;;8.60;55.10;;;;;;5027594;28;20258;-69
2023/12/27 00:57:26;;;;;;;4.03;2.80;;;8.60;55.00;;;;;;5027879;28;20207;-69
2023/12/27 00:59:52;;;;;;;4.77;3.10;;;8.50;55.30;;;;;;5029812;28;20587;-70
2023/12/27 01:02:19;;;;;;;3.70;2.83;;;8.40;55.20;;;;;;5030080;28;20677;-70
2023/12/27 01:04:46;;;;;;;5.83;3.10;;;8.40;55.40;;;;;;5029467;28;20597;-69
2023/12/27 01:07:12;;;;;;;4.57;2.83;;;8.40;55.50;;;;;;5032003;28;20265;-69
2023/12/27 01:09:39;;;;;;;6.80;2.87;;;8.50;55.50;;;;;;5030531;28;20260;-69
2023/12/27 01:12:05;;;;;;;3.20;2.63;;;8.50;55.10;;;;;;5030460;28;20238;-68
2023/12/27 01:14:32;;;;;;;4.70;2.90;;;8.60;55.10;;;;;;5027425;28;20293;-68
2023/12/27 01:16:58;;;;;;;2.50;2.30;;;8.50;55.20;;;;;;5027188;28;20234;-69
2023/12/27 01:19:25;;;;;;;2.77;2.57;;;8.40;55.10;;;;;;5024899;28;20252;-69
2023/12/27 01:21:51;;;;;;;4.20;2.70;;;8.40;55.20;;;;;;5031454;28;20248;-68
2023/12/27 01:24:18;;;;;;;2.60;2.40;;;8.40;55.90;;;;;;5031742;28;20233;-69
2023/12/27 01:26:44;;;;;;;3.07;2.40;;;8.30;55.50;;;;;;5030381;28;20275;-68
2023/12/27 01:29:11;;;;;;;3.93;2.80;;;8.30;55.40;;;;;;5029836;28;20226;-69
2023/12/27 01:31:38;;;;;;;2.87;2.50;;;8.40;56.00;;;;;;5031326;28;20207;-69
2023/12/27 01:34:04;;;;;;;6.13;3.13;;;8.40;55.50;;;;;;5032798;28;20205;-69
2023/12/27 01:36:31;;;;;;;2.93;2.50;;;8.40;55.50;;;;;;5024637;28;20222;-69
2023/12/27 01:38:58;;;;;;;2.93;2.37;;;8.40;55.60;;;;;;5021479;28;20203;-69
2023/12/27 01:41:24;;;;;;;2.83;2.50;;;8.40;55.60;;;;;;5031711;28;20233;-69
2023/12/27 01:43:51;;;;;;;4.70;2.60;;;8.40;55.90;;;;;;5031524;28;20245;-69
2023/12/27 01:46:17;;;;;;;2.90;2.60;;;8.40;56.10;;;;;;5019159;28;20269;-69
2023/12/27 01:48:44;;;;;;;4.13;2.70;;;8.30;56.50;;;;;;5027655;28;20304;-69
2023/12/27 01:51:12;;;;;;;2.93;2.57;;;8.30;56.20;;;;;;5031171;28;20236;-69
2023/12/27 01:53:39;;;;;;;3.13;2.83;;;8.30;56.30;;;;;;5028879;28;20260;-69
2023/12/27 01:56:05;;;;;;;4.50;2.70;;;8.30;56.30;;;;;;5030322;28;20222;-69
2023/12/27 01:58:32;;;;;;;3.97;2.90;;;8.30;56.50;;;;;;5031501;28;20209;-69
2023/12/27 02:00:58;;;;;;;3.40;2.57;;;8.30;56.40;;;;;;5030391;28;20215;-70
2023/12/27 02:03:25;;;;;;;2.53;2.23;;;8.30;56.70;;;;;;5030876;28;20209;-69
2023/12/27 02:05:52;;;;;;;2.77;2.33;;;8.30;56.40;;;;;;5030559;28;20225;-69
2023/12/27 02:08:18;;;;;;;3.37;2.40;;;8.30;56.50;;;;;;5030023;28;20249;-69
2023/12/27 02:10:45;;;;;;;3.67;2.70;;;8.30;56.60;;;;;;5027813;28;20241;-69
2023/12/27 02:13:11;;;;;;;2.90;2.50;;;8.30;56.50;;;;;;5030219;28;20670;-69
2023/12/27 02:15:38;;;;;;;3.90;2.97;;;8.30;56.50;;;;;;5030860;28;20250;-69
2023/12/27 02:18:04;;;;;;;5.50;2.80;;;8.20;56.60;;;;;;5026349;28;20271;-69
2023/12/27 02:20:31;;;;;;;4.13;2.57;;;8.30;56.80;;;;;;5030731;28;20214;-69
2023/12/27 02:22:57;;;;;;;3.33;2.40;;;8.30;56.80;;;;;;5035483;28;20274;-69
2023/12/27 02:25:24;;;;;;;2.57;2.17;;;8.30;56.60;;;;;;5035175;28;20225;-70
2023/12/27 02:27:50;;;;;;;5.60;2.73;;;8.30;56.50;;;;;;5028671;28;20670;-69
2023/12/27 02:30:17;;;;;;;4.20;2.57;;;8.30;56.80;;;;;;5023450;28;20206;-69
2023/12/27 02:32:44;;;;;;;2.77;2.57;;;8.30;56.10;;;;;;5031456;28;20206;-69
2023/12/27 02:35:10;;;;;;;5.23;3.87;;;8.40;56.30;;;;;;5035321;28;20234;-70
2023/12/27 02:37:37;;;;;;;3.80;2.80;;;8.30;56.30;;;;;;5029313;28;20218;-69
2023/12/27 02:40:03;;;;;;;3.23;2.83;;;8.30;56.20;;;;;;5032951;28;20202;-69
2023/12/27 02:42:30;;;;;;;2.80;2.60;;;8.30;56.00;;;;;;5029554;28;20219;-70
2023/12/27 02:44:56;;;;;;;3.90;2.73;;;8.30;56.50;;;;;;5035891;28;20569;-69
2023/12/27 02:47:23;;;;;;;4.33;2.43;;;8.40;56.30;;;;;;5034875;28;20211;-69
2023/12/27 02:49:49;;;;;;;3.47;2.50;;;8.40;56.30;;;;;;5035398;28;20723;-69
2023/12/27 02:52:16;;;;;;;4.07;2.40;;;8.40;56.30;;;;;;5034770;28;20497;-69
2023/12/27 02:54:42;;;;;;;3.80;2.40;;;8.40;56.10;;;;;;5032957;28;20210;-69
2023/12/27 02:57:09;;;;;;;5.07;2.97;;;8.40;56.10;;;;;;5033825;28;20761;-69
2023/12/27 02:59:35;;;;;;;3.10;2.27;;;8.40;56.30;;;;;;5034421;28;20902;-69
2023/12/27 03:02:02;;;;;;;2.80;2.60;;;8.40;57.50;;;;;;5034186;28;20203;-69
2023/12/27 03:04:28;;;;;;;4.17;2.43;;;8.40;56.40;;;;;;5034706;28;20217;-70
2023/12/27 03:06:55;;;;;;;3.07;2.40;;;8.40;56.50;;;;;;5033629;28;20303;-69
2023/12/27 03:09:21;;;;;;;3.30;2.57;;;8.30;56.30;;;;;;5033441;28;20265;-70
2023/12/27 03:11:48;;;;;;;3.57;2.47;;;8.40;56.40;;;;;;5034845;28;20236;-69
2023/12/27 03:14:15;;;;;;;5.27;2.97;;;8.40;56.40;;;;;;5034398;28;20291;-69
2023/12/27 03:16:41;;;;;;;2.83;2.03;;;8.30;56.30;;;;;;5034392;28;20265;-69
2023/12/27 03:19:08;;;;;;;3.23;2.50;;;8.40;56.50;;;;;;5015469;28;20257;-69
2023/12/27 03:21:34;;;;;;;2.40;2.20;;;8.40;56.50;;;;;;5033629;28;20206;-69
2023/12/27 03:24:01;;;;;;;3.83;2.53;;;8.30;56.60;;;;;;5034524;28;20209;-69
2023/12/27 03:26:27;;;;;;;4.53;2.80;;;8.40;56.50;;;;;;5034358;28;20255;-69
2023/12/27 03:28:54;;;;;;;3.57;2.80;;;8.40;56.60;;;;;;5032334;28;20323;-69
2023/12/27 03:31:28;;;;;;;3.97;2.67;;;8.40;56.60;;;;;;5033926;28;20285;-69
2023/12/27 03:33:54;;;;;;;3.63;2.20;;;8.40;56.20;;;;;;5035402;28;20210;-69
2023/12/27 03:36:21;;;;;;;3.33;2.50;;;8.40;56.60;;;;;;5035905;28;20265;-70
2023/12/27 03:38:48;;;;;;;6.93;3.13;;;8.40;56.30;;;;;;5031280;28;20233;-70
2023/12/27 03:41:14;;;;;;;4.70;2.70;;;8.40;56.40;;;;;;5020363;28;20210;-69
2023/12/27 03:43:41;;;;;;;5.00;3.07;;;8.30;57.00;;;;;;5032502;28;20210;-69
2023/12/27 03:46:07;;;;;;;3.03;2.60;;;8.30;57.40;;;;;;5032304;28;20241;-69
2023/12/27 03:48:34;;;;;;;2.60;2.30;;;8.30;57.10;;;;;;5033789;28;20368;-69
2023/12/27 03:51:00;;;;;;;2.60;2.40;;;8.30;56.80;;;;;;5033820;28;20237;-69
2023/12/27 03:53:27;;;;;;;2.93;2.43;;;8.30;57.00;;;;;;5033871;28;20218;-70
2023/12/27 03:55:54;;;;;;;2.60;2.40;;;8.30;56.80;;;;;;5031449;28;20315;-69
2023/12/27 03:58:20;;;;;;;3.03;2.40;;;8.30;57.00;;;;;;5026777;28;20233;-69
2023/12/27 04:00:47;;;;;;;3.93;2.50;;;8.40;57.10;;;;;;5031747;28;20375;-69
2023/12/27 04:03:14;;;;;;;3.20;2.50;;;8.30;56.90;;;;;;5022191;28;20695;-69
2023/12/27 04:05:40;;;;;;;3.23;2.40;;;8.30;57.10;;;;;;5033149;28;20222;-69
2023/12/27 04:08:07;;;;;;;4.07;2.33;;;8.30;56.90;;;;;;5022906;28;20319;-69
2023/12/27 04:10:33;;;;;;;3.10;2.40;;;8.30;57.30;;;;;;5022216;28;20293;-70
2023/12/27 04:13:00;;;;;;;3.23;2.70;;;8.30;56.80;;;;;;5032218;28;20235;-70
2023/12/27 04:15:26;;;;;;;2.60;2.40;;;8.30;56.70;;;;;;5027586;28;20260;-69
2023/12/27 04:17:53;;;;;;;4.17;2.43;;;8.30;56.80;;;;;;5026450;28;20243;-70
2023/12/27 04:20:19;;;;;;;4.03;2.60;;;8.30;57.30;;;;;;5029208;28;20238;-70
2023/12/27 04:22:46;;;;;;;2.40;2.20;;;8.40;56.70;;;;;;5035038;28;20591;-70
2023/12/27 04:25:13;;;;;;;3.30;2.37;;;8.30;56.80;;;;;;5032737;28;20280;-70
2023/12/27 04:27:38;;;;;;;2.57;2.37;;;8.30;56.80;;;;;;5035155;28;20202;-70
2023/12/27 04:30:05;;;;;;;2.70;2.50;;;8.30;57.40;;;;;;5032823;28;20222;-69
2023/12/27 04:32:31;;;;;;;4.07;2.53;;;8.30;57.40;;;;;;5032523;28;20264;-69
2023/12/27 04:34:58;;;;;;;4.60;2.70;;;8.30;57.40;;;;;;5023540;28;20304;-70
2023/12/27 04:37:24;;;;;;;3.33;2.53;;;8.20;57.40;;;;;;5027361;28;20224;-69
2023/12/27 04:39:51;;;;;;;4.87;3.03;;;8.20;57.30;;;;;;5032491;28;20210;-69
2023/12/27 04:42:18;;;;;;;5.13;2.80;;;8.30;57.40;;;;;;5033047;28;20217;-70
2023/12/27 04:44:44;;;;;;;4.20;2.60;;;8.30;58.10;;;;;;5032360;28;20254;-69
2023/12/27 04:47:11;;;;;;;2.93;2.70;;;8.30;57.40;;;;;;5032291;28;20233;-69
2023/12/27 04:49:38;;;;;;;2.90;2.70;;;8.20;57.30;;;;;;5032649;28;20226;-70
2023/12/27 04:52:04;;;;;;;4.00;3.00;;;8.30;57.40;;;;;;5029526;28;20249;-69
2023/12/27 04:54:31;;;;;;;3.13;2.60;;;8.20;57.30;;;;;;5030940;28;20203;-69
2023/12/27 04:56:57;;;;;;;4.10;3.10;;;8.20;57.40;;;;;;5037487;28;20959;-69
2023/12/27 04:59:24;;;;;;;6.13;2.93;;;8.20;57.30;;;;;;5034253;28;20288;-69
2023/12/27 05:01:50;;;;;;;7.27;2.63;;;8.00;58.10;;;;;;5035808;28;20206;-69
2023/12/27 05:04:17;;;;;;;3.57;2.83;;;8.00;58.30;;;;;;5029615;28;20210;-69
2023/12/27 05:06:43;;;;;;;3.40;2.60;;;8.00;58.30;;;;;;5031862;28;20222;-70
2023/12/27 05:09:10;;;;;;;4.20;2.53;;;8.00;58.50;;;;;;5026185;28;20670;-69
2023/12/27 05:11:37;;;;;;;3.73;2.60;;;7.90;58.40;;;;;;5032123;28;20646;-69
2023/12/27 05:14:03;;;;;;;6.50;3.03;;;7.90;58.50;;;;;;5031587;28;20281;-69
2023/12/27 05:16:30;;;;;;;4.20;2.73;;;7.90;58.40;;;;;;5032149;28;20285;-69
2023/12/27 05:18:56;;;;;;;3.90;2.83;;;7.90;58.50;;;;;;5023935;28;20234;-69
2023/12/27 05:21:23;;;;;;;2.73;2.50;;;7.90;58.30;;;;;;5029293;28;20751;-69
2023/12/27 05:23:49;;;;;;;4.63;2.80;;;7.80;58.00;;;;;;5025925;28;20246;-69
2023/12/27 05:26:16;;;;;;;3.53;2.50;;;7.90;57.90;;;;;;5030671;28;20240;-69
2023/12/27 05:28:42;;;;;;;5.00;2.93;;;7.80;57.90;;;;;;5031547;28;20258;-69
2023/12/27 05:31:09;;;;;;;4.57;2.47;;;7.80;57.00;;;;;;5031998;28;20883;-69
2023/12/27 05:33:35;;;;;;;3.10;2.90;;;7.90;57.10;;;;;;5023803;28;20252;-69
2023/12/27 05:36:02;;;;;;;4.67;2.97;;;7.80;57.00;;;;;;5031946;28;20237;-69
2023/12/27 05:38:29;;;;;;;3.73;2.70;;;7.90;57.30;;;;;;5029620;28;20621;-69
2023/12/27 05:40:55;;;;;;;3.03;2.50;;;7.80;57.00;;;;;;5032255;28;20646;-69
2023/12/27 05:43:22;;;;;;;3.67;2.63;;;7.80;57.00;;;;;;5029617;28;20696;-69
2023/12/27 05:45:49;;;;;;;4.03;3.63;;;7.80;57.30;;;;;;5031807;28;20233;-69
2023/12/27 05:48:15;;;;;;;4.33;3.07;;;7.70;57.40;;;;;;5031129;28;20311;-69
2023/12/27 05:50:42;;;;;;;5.07;2.83;;;7.70;57.80;;;;;;5031491;28;20244;-69
2023/12/27 05:53:09;;;;;;;4.07;2.50;;;7.60;58.10;;;;;;5031790;28;21542;-69
2023/12/27 05:55:36;;;;;;;4.50;3.10;;;7.60;58.50;;;;;;5026535;28;20287;-69
2023/12/27 05:58:02;;;;;;;4.20;2.87;;;7.50;59.20;;;;;;5023574;28;20598;-69
2023/12/27 06:00:29;;;;;;;4.33;2.90;;;7.60;59.00;;;;;;5030125;28;20217;-69
2023/12/27 06:02:55;;;;;;;3.00;2.70;;;7.60;59.10;;;;;;5031371;28;20680;-69
2023/12/27 06:05:23;;;;;;;5.57;3.00;;;7.50;59.10;;;;;;5028316;28;20247;-69
2023/12/27 06:07:49;;;;;;;6.00;3.13;;;7.30;59.40;;;;;;5021173;28;20206;-69
2023/12/27 06:10:16;;;;;;;6.13;3.27;;;7.30;59.80;;;;;;5028148;28;20254;-69
2023/12/27 06:12:43;;;;;;;7.33;3.40;;;7.20;60.00;;;;;;5030603;28;20244;-69
2023/12/27 06:15:10;;;;;;;5.90;2.80;;;7.10;60.20;;;;;;5031326;28;20230;-69
2023/12/27 06:17:37;;;;;;;4.83;3.33;;;7.10;60.80;;;;;;5024396;28;20279;-69
2023/12/27 06:20:04;;;;;;;6.07;2.73;;;7.00;60.80;;;;;;5031890;28;20233;-69
2023/12/27 06:22:31;;;;;;;6.07;3.27;;;7.00;61.20;;;;;;5026811;28;20288;-69
2023/12/27 06:24:58;;;;;;;4.43;3.33;;;6.90;61.30;;;;;;5029262;28;20233;-69
2023/12/27 06:27:24;;;;;;;4.93;3.17;;;7.10;62.80;;;;;;5032112;28;20245;-69
2023/12/27 06:29:51;;;;;;;7.20;2.93;;;7.10;63.10;;;;;;5032283;28;20271;-69
2023/12/27 06:32:17;;;;;;;3.87;3.47;;;7.10;62.90;;;;;;5033045;28;20680;-69
2023/12/27 06:34:44;;;;;;;3.97;3.67;;;7.10;62.80;;;;;;5030526;28;20279;-69
2023/12/27 06:37:10;;;;;;;3.70;2.70;;;7.10;63.20;;;;;;5030521;28;20259;-69
2023/12/27 06:39:37;;;;;;;2.80;2.60;;;7.00;63.20;;;;;;5034515;28;20210;-69
2023/12/27 06:42:03;;;;;;;4.43;3.13;;;7.00;62.60;;;;;;5030765;28;20271;-69
2023/12/27 06:44:30;;;;;;;4.17;2.47;;;7.00;62.50;;;;;;5028578;28;20243;-69
2023/12/27 06:46:57;;;;;;;2.60;2.40;;;6.90;62.30;;;;;;5030763;28;20283;-69
2023/12/27 06:49:23;;;;;;;2.67;2.47;;;6.90;62.40;;;;;;5030726;28;20226;-69
2023/12/27 06:51:50;;;;;;;2.97;2.60;;;7.00;62.80;;;;;;5029479;28;20213;-69
2023/12/27 06:54:16;;;;;;;3.00;2.70;;;6.90;62.30;;;;;;5031792;28;20255;-69
2023/12/27 06:56:43;;;;;;;3.73;2.83;;;7.00;62.90;;;;;;5031572;28;20275;-69
2023/12/27 06:59:10;;;;;;;2.73;2.53;;;6.90;62.60;;;;;;5029656;28;20201;-69
2023/12/27 07:01:36;;;;;;;3.47;2.50;;;6.90;62.60;;;;;;5020286;28;20547;-70
2023/12/27 07:04:04;;;;;;;2.97;2.33;;;6.90;62.50;;;;;;5031517;28;20213;-69
2023/12/27 07:06:30;;;;;;;4.13;3.20;;;6.80;62.80;;;;;;5025493;28;20605;-69
2023/12/27 07:08:57;;;;;;;3.80;2.90;;;6.80;62.60;;;;;;5030847;28;20224;-69
2023/12/27 07:11:25;;;;;;;3.50;2.80;;;6.70;63.00;;;;;;5034672;28;20213;-69
2023/12/27 07:13:51;;;;;;;4.13;2.90;;;6.70;63.30;;;;;;5033554;28;20208;-69
2023/12/27 07:16:18;;;;;;;4.23;2.80;;;6.80;62.50;;;;;;5037983;28;20224;-70
2023/12/27 07:18:44;;;;;;;3.03;2.83;;;6.80;62.30;;;;;;5030847;28;20640;-69
2023/12/27 07:21:11;;;;;;;6.13;3.17;;;6.70;62.10;;;;;;5026190;28;20589;-69
2023/12/27 07:23:38;;;;;;;2.93;2.60;;;6.70;61.80;;;;;;5032121;28;20244;-70
2023/12/27 07:26:04;;;;;;;3.97;2.73;;;6.60;62.00;;;;;;5029075;28;20260;-70
2023/12/27 07:28:31;;;;;;;5.00;2.73;;;6.60;62.30;;;;;;5035044;28;20276;-68
2023/12/27 07:30:58;;;;;;;7.20;2.73;;;6.60;62.50;;;;;;5034195;28;20319;-69
2023/12/27 07:33:24;;;;;;;4.80;2.87;;;6.60;62.10;;;;;;5033753;28;20274;-69
2023/12/27 07:35:51;;;;;;;3.17;2.70;;;6.60;61.90;;;;;;5031160;28;20730;-69
2023/12/27 07:38:18;;;;;;;3.43;3.00;;;6.70;61.90;;;;;;5027802;28;20288;-70
2023/12/27 07:40:44;;;;;;;3.00;2.80;;;6.60;61.70;;;;;;5030659;28;20288;-69
2023/12/27 07:43:11;;;;;;;2.93;2.70;;;6.60;61.30;;;;;;5031600;28;20258;-69
2023/12/27 07:45:37;;;;;;;3.90;3.13;;;6.60;61.10;;;;;;5033946;28;20253;-69
2023/12/27 07:48:04;;;;;;;3.53;2.80;;;6.60;61.20;;;;;;5023624;28;20766;-69
2023/12/27 07:50:30;;;;;;;4.87;3.07;;;6.60;60.80;;;;;;5033384;28;20278;-69
2023/12/27 07:52:57;;;;;;;3.13;2.87;;;6.60;60.60;;;;;;5018796;28;20666;-69
2023/12/27 07:55:24;;;;;;;4.90;2.80;;;6.60;60.40;;;;;;5033577;28;20579;-69
2023/12/27 07:57:50;;;;;;;3.30;3.00;;;6.70;60.50;;;;;;5024933;28;20232;-70
2023/12/27 08:00:18;;;;;;;3.17;2.53;;;6.70;59.80;;;;;;5029689;28;20208;-70
2023/12/27 08:02:44;;;;;;;3.07;2.27;;;6.80;59.80;;;;;;5030671;28;20308;-70
2023/12/27 08:05:11;;;;;;;3.10;2.67;;;6.80;59.20;;;;;;5032603;28;20266;-69
2023/12/27 08:07:38;;;;;;;4.13;2.73;;;6.80;58.30;;;;;;5030908;28;20242;-69
2023/12/27 08:10:04;;;;;;;3.23;2.50;;;6.80;58.00;;;;;;5029132;28;20283;-70
2023/12/27 08:12:31;;;;;;;4.37;2.90;;;6.90;58.00;;;;;;5032959;28;20657;-69
2023/12/27 08:14:57;;;;;;;3.60;3.00;;;7.00;57.40;;;;;;5031706;28;20257;-69
2023/12/27 08:17:25;;;;;;;2.90;2.70;;;7.10;57.30;;;;;;5027970;28;20200;-69
2023/12/27 08:19:51;;;;;;;3.27;2.97;;;7.10;56.50;;;;;;5030685;28;20268;-69
2023/12/27 08:22:18;;;;;;;3.17;2.87;;;7.20;55.80;;;;;;5029507;28;20297;-70
2023/12/27 08:24:44;;;;;;;3.80;2.77;;;7.40;55.30;;;;;;5026640;28;20206;-70
2023/12/27 08:27:11;;;;;;;3.30;2.83;;;7.60;54.80;;;;;;5029792;28;20206;-69
2023/12/27 08:29:38;;;;;;;2.97;2.67;;;7.70;53.50;;;;;;5028993;28;20644;-69
2023/12/27 08:32:05;;;;;;;3.90;2.50;;;7.90;52.30;;;;;;5027366;28;20383;-69
2023/12/27 08:34:32;;;;;;;3.27;2.77;;;8.30;52.20;;;;;;5025463;28;22201;-70
2023/12/27 08:36:58;;;;;;;3.37;2.30;;;8.60;50.70;;;;;;5027475;28;20583;-68
2023/12/27 08:39:25;;;;;;;3.17;2.57;;;8.90;49.50;;;;;;5026328;28;20222;-69
2023/12/27 08:41:51;;;;;;;2.83;2.57;;;9.10;49.20;;;;;;5021258;28;20243;-68
2023/12/27 08:44:18;;;;;;;2.57;2.33;;;9.20;47.90;;;;;;5026596;28;20204;-67
2023/12/27 08:46:44;;;;;;;3.10;2.80;;;9.40;47.30;;;;;;5025577;28;20227;-70
2023/12/27 08:49:11;;;;;;;2.53;2.33;;;9.30;46.30;;;;;;5022000;28;20269;-67
2023/12/27 08:51:38;;;;;;;2.93;2.50;;;9.70;46.30;;;;;;5023451;28;20239;-68
2023/12/27 08:54:05;;;;;;;4.50;2.53;;;9.80;45.30;;;;;;5025679;28;20674;-68
2023/12/27 08:56:31;;;;;;;2.30;2.10;;;9.80;45.30;;;;;;5029860;28;20230;-67
2023/12/27 08:58:58;;;;;;;2.37;2.17;;;9.90;44.80;;;;;;5025274;28;20233;-69
2023/12/27 09:01:24;;;;;;;3.23;2.20;;;10.30;43.10;;;;;;5023710;28;20210;-69
2023/12/27 09:03:51;;;;;;;3.93;2.10;;;9.70;45.20;;;;;;5023990;28;20271;-70
2023/12/27 09:06:17;;;;;;;2.37;2.27;;;9.30;45.40;;;;;;5023138;28;20643;-70
2023/12/27 09:08:44;;;;;;;4.17;2.93;;;8.90;46.30;;;;;;5027789;28;20236;-70
2023/12/27 09:11:10;;;;;;;2.20;2.10;;;8.70;46.90;;;;;;5028724;28;20225;-68
2023/12/27 09:13:37;;;;;;;2.43;2.20;;;8.80;46.60;;;;;;5023215;28;20256;-67
2023/12/27 09:16:04;;;;;;;2.67;2.40;;;8.70;46.70;;;;;;5024811;28;20223;-66
2023/12/27 09:18:30;;;;;;;2.60;2.40;;;8.60;47.00;;;;;;5030967;28;20243;-68
2023/12/27 09:20:58;;;;;;;3.10;2.50;;;8.10;47.70;;;;;;5026826;28;20230;-68
2023/12/27 09:23:25;;;;;;;2.83;2.53;;;8.20;47.80;;;;;;5016710;28;20315;-68
2023/12/27 09:25:51;;;;;;;2.50;2.30;;;8.70;47.20;;;;;;5024867;28;20281;-68
2023/12/27 09:28:18;;;;;;;2.50;2.30;;;9.10;46.00;;;;;;5029682;28;20213;-68
2023/12/27 09:30:45;;;;;;;2.73;2.50;;;9.20;46.90;;;;;;5029982;28;20231;-69
2023/12/27 09:33:11;;;;;;;2.60;2.40;;;9.50;45.30;;;;;;5023307;28;20211;-65
2023/12/27 09:35:40;;;;;;;2.67;2.47;;;10.20;43.50;;;;;;5026242;28;20253;-68
2023/12/27 09:38:06;;;;;;;2.83;2.33;;;10.40;41.80;;;;;;5029793;28;20225;-68
2023/12/27 09:40:33;;;;;;;2.60;2.40;;;10.10;42.80;;;;;;5030616;28;20248;-67
2023/12/27 09:43:00;;;;;;;4.20;2.50;;;10.40;42.10;;;;;;5025613;28;20304;-69
2023/12/27 09:45:26;;;;;;;2.70;2.50;;;10.30;41.50;;;;;;5028496;28;20227;-74
2023/12/27 09:47:53;;;;;;;3.90;2.53;;;10.30;42.00;;;;;;5030724;28;20216;-68
2023/12/27 09:50:20;;;;;;;3.53;2.83;;;10.70;41.90;;;;;;5024132;28;20236;-67
2023/12/27 09:52:47;;;;;;;2.47;2.27;;;11.30;40.50;;;;;;5034305;28;20259;-68
2023/12/27 09:55:13;;;;;;;2.53;2.33;;;11.30;40.50;;;;;;5024357;28;20253;-68
2023/12/27 09:57:40;;;;;;;2.33;2.13;;;11.80;39.40;;;;;;5027945;28;20210;-69
2023/12/27 10:00:07;;;;;;;3.40;2.33;;;12.20;38.80;;;;;;5034000;28;20209;-69
2023/12/27 10:02:34;;;;;;;3.00;2.33;;;12.60;38.40;;;;;;5012173;28;20214;-69
2023/12/27 10:05:02;;;;;;;2.70;2.33;;;12.90;37.40;;;;;;5027515;28;20704;-69
2023/12/27 10:07:29;;;;;;;2.73;2.53;;;13.00;36.90;;;;;;5025550;28;20208;-68
2023/12/27 10:09:55;;;;;;;5.07;2.17;;;12.80;37.70;;;;;;5029036;28;20766;-68
2023/12/27 10:12:22;;;;;;;2.77;2.07;;;12.80;36.90;;;;;;5021736;28;20304;-67
2023/12/27 10:14:48;;;;;;;2.40;1.80;;;12.90;36.90;;;;;;5024643;28;20205;-68
2023/12/27 10:17:15;;;;;;;2.50;2.30;;;13.00;37.00;;;;;;5024150;28;20233;-67
2023/12/27 10:19:41;;;;;;;2.77;2.07;;;13.20;36.50;;;;;;5029634;28;20210;-67
2023/12/27 10:22:08;;;;;;;2.23;2.03;;;12.70;36.80;;;;;;5030870;28;20274;-68
2023/12/27 10:24:35;;;;;;;2.17;1.97;;;13.00;37.00;;;;;;5022420;28;20668;-70
2023/12/27 10:27:01;;;;;;;2.70;1.90;;;13.00;36.90;;;;;;5025244;28;20293;-67
2023/12/27 10:29:28;;;;;;;2.50;2.10;;;13.10;36.50;;;;;;5028176;28;20232;-67
2023/12/27 10:31:54;;;;;;;2.10;1.90;;;13.20;36.50;;;;;;5029234;28;20842;-67
2023/12/27 10:34:21;;;;;;;2.00;1.80;;;13.50;36.30;;;;;;5031102;28;20293;-67
2023/12/27 10:36:47;;;;;;;2.20;2.00;;;13.90;35.20;;;;;;5031044;28;20324;-67
2023/12/27 10:39:17;;;;;;;2.97;2.30;;;13.70;35.30;;;;;;5013468;28;20206;-67
2023/12/27 10:41:43;;;;;;;2.20;2.00;;;13.50;35.20;;;;;;5028169;28;20223;-66
2023/12/27 10:44:11;;;;;;;2.13;1.93;;;13.10;35.50;;;;;;5035134;28;20214;-67
2023/12/27 10:46:38;;;;;;;2.17;1.97;;;13.60;35.50;;;;;;5034885;28;20233;-67
2023/12/27 10:49:05;;;;;;;2.33;2.10;;;13.70;35.10;;;;;;5033776;28;20213;-67
2023/12/27 10:51:37;;;;;;;2.50;2.07;;;14.00;34.00;;;;;;5034969;28;20724;-67
2023/12/27 10:54:04;;;;;;;2.30;2.10;;;14.20;33.80;;;;;;5035287;28;20210;-67
2023/12/27 10:56:31;;;;;;;2.20;2.00;;;14.30;32.80;;;;;;5035441;28;20323;-67
2023/12/27 10:58:57;;;;;;;2.10;1.90;;;14.40;32.10;;;;;;5029836;28;20229;-67
2023/12/27 11:01:24;;;;;;;3.40;2.20;;;14.60;32.40;;;;;;5034446;28;20603;-67
2023/12/27 11:03:50;;;;;;;3.47;1.80;;;14.40;30.70;;;;;;5034423;28;20266;-67
2023/12/27 11:06:17;;;;;;;2.60;2.20;;;14.20;30.60;;;;;;5033286;28;20291;-67
2023/12/27 11:08:44;;;;;;;2.67;2.20;;;14.60;30.40;;;;;;5035526;28;20264;-67
2023/12/27 11:11:11;;;;;;;2.30;2.10;;;13.90;29.40;;;;;;5034468;28;20238;-67
2023/12/27 11:13:37;;;;;;;2.40;2.00;;;13.40;31.00;;;;;;5034312;28;20324;-67
2023/12/27 11:16:04;;;;;;;2.60;1.83;;;13.70;30.40;;;;;;5034469;28;20231;-67
2023/12/27 11:18:30;;;;;;;1.80;1.70;;;13.90;30.00;;;;;;5033239;28;20242;-67
2023/12/27 11:20:57;;;;;;;2.43;2.20;;;14.00;29.90;;;;;;5032940;28;20246;-67
2023/12/27 11:23:24;;;;;;;2.00;1.80;;;13.90;29.40;;;;;;5032316;28;20211;-67
2023/12/27 11:25:50;;;;;;;1.90;1.70;;;14.00;29.50;;;;;;5034117;28;20817;-67
2023/12/27 11:28:17;;;;;;;2.20;2.10;;;14.50;29.20;;;;;;5034205;28;20208;-66
2023/12/27 11:30:45;;;;;;;3.00;2.07;;;14.90;28.20;;;;;;5032776;28;20319;-66
2023/12/27 11:33:11;;;;;;;3.00;2.70;;;15.40;27.60;;;;;;5033724;28;20226;-66
2023/12/27 11:35:38;;;;;;;6.90;6.20;;;16.00;27.10;;;;;;5030843;28;20287;-67
2023/12/27 11:38:04;;;;;;;2.47;2.20;;;17.40;26.60;;;;;;5028945;28;20360;-66
2023/12/27 11:40:31;;;;;;;2.35;1.92;;;18.50;25.00;;;;;;5032714;28;20661;-66
2023/12/27 11:42:57;;;;;;;2.40;2.20;;;19.20;23.50;;;;;;5033084;28;20221;-66
2023/12/27 11:45:24;;;;;;;2.33;2.13;;;19.80;23.60;;;;;;5033214;28;20234;-66
2023/12/27 11:47:50;;;;;;;2.38;2.17;;;18.60;24.20;;;;;;5032510;28;20244;-66
2023/12/27 11:50:16;;;;;;;2.22;1.67;;;17.80;25.70;;;;;;5033222;28;20645;-65
2023/12/27 11:52:44;;;;;;;2.03;1.80;;;18.20;25.30;;;;;;5033198;28;20202;-71
2023/12/27 11:55:11;;;;;;;2.10;1.88;;;19.10;23.40;;;;;;5022797;28;20222;-67
2023/12/27 11:57:37;;;;;;;2.50;2.15;;;19.80;23.10;;;;;;5018150;28;20745;-66
2023/12/27 12:00:04;;;;;;;2.15;1.88;;;19.60;23.10;;;;;;5013831;28;20728;-67
2023/12/27 12:02:31;;;;;;;3.33;2.00;;;19.20;24.10;;;;;;5029687;28;20552;-66
2023/12/27 12:05:00;;;;;;;3.00;2.00;;;18.10;24.70;;;;;;5030805;28;20226;-66
2023/12/27 12:07:26;;;;;;;5.28;1.98;;;17.10;25.50;;;;;;5033450;28;20249;-67
2023/12/27 12:09:53;;;;;;;3.03;2.10;;;16.80;26.40;;;;;;5029764;28;20229;-66
2023/12/27 12:12:19;;;;;;;2.20;2.00;;;16.20;26.80;;;;;;5020721;28;20587;-66
2023/12/27 12:14:46;;;;;;;2.25;2.03;;;15.60;27.10;;;;;;5020821;28;20280;-66
2023/12/27 12:17:12;;;;;;;3.53;2.15;;;15.30;27.70;;;;;;5031500;28;20210;-66
2023/12/27 12:19:39;;;;;;;3.03;2.10;;;14.90;27.80;;;;;;5031899;28;20703;-66
2023/12/27 12:22:05;;;;;;;3.67;2.33;;;14.90;28.40;;;;;;5029396;28;20275;-66
2023/12/27 12:24:32;;;;;;;2.23;1.90;;;14.90;28.30;;;;;;5030576;28;20260;-66
2023/12/27 12:26:59;;;;;;;2.07;1.87;;;14.70;29.00;;;;;;5033581;28;20205;-66
2023/12/27 12:29:27;;;;;;;3.30;2.07;;;14.80;28.50;;;;;;5026003;28;20214;-66
2023/12/27 12:31:55;;;;;;;2.10;1.90;;;14.70;28.20;;;;;;5027482;28;20261;-66
2023/12/27 12:34:21;;;;;;;1.83;1.73;;;14.60;28.10;;;;;;5029050;28;20232;-66
2023/12/27 12:36:47;;;;;;;2.33;2.20;;;14.40;28.30;;;;;;5027116;28;20284;-66
2023/12/27 12:39:14;;;;;;;2.43;1.63;;;14.20;27.90;;;;;;5024872;28;20204;-67
2023/12/27 12:41:40;;;;;;;2.30;1.53;;;14.20;28.50;;;;;;5014924;28;20239;-66
2023/12/27 12:44:07;;;;;;;2.00;1.90;;;14.30;27.80;;;;;;5025001;28;20678;-67
2023/12/27 12:46:33;;;;;;;2.20;2.00;;;14.10;27.90;;;;;;5029164;28;20317;-67
2023/12/27 12:49:00;;;;;;;2.37;2.17;;;14.20;28.10;;;;;;5023952;28;21540;-67
2023/12/27 12:51:27;;;;;;;2.53;1.80;;;14.30;28.40;;;;;;5031200;28;20226;-67